Time;durP1;ratioP1;P1;durP2;ratioP2;P2;SDS_P1;SDS_P2;PMS_P1;PMS_P2;Temp;Humidity;BMP_temperature;BMP_pressure;BME280_temperature;BME280_humidity;BME280_pressure;Samples;Min_cycle;Max_cycle;Signal;HPM_P1;HPM_P2
2022/03/19 00:02:19;;;;;;;175.63;80.30;;;1.70;99.90;196.50;224877.00;;;;7396417;19;20137;-81
2022/03/19 00:04:53;;;;;;;167.70;81.20;;;1.70;99.90;196.50;224877.00;;;;7396206;19;20147;-81
2022/03/19 00:07:21;;;;;;;168.60;83.33;;;1.70;99.90;196.50;224877.00;;;;7395063;19;20146;-80
2022/03/19 00:09:48;;;;;;;173.43;83.63;;;1.70;99.90;196.50;224877.00;;;;7393494;19;20141;-80
2022/03/19 00:12:21;;;;;;;187.43;85.63;;;1.70;99.90;196.50;224877.00;;;;7396080;19;20595;-81
2022/03/19 00:14:48;;;;;;;182.70;85.47;;;1.60;99.90;196.50;224877.00;;;;7395703;19;20151;-80
2022/03/19 00:17:15;;;;;;;193.80;86.47;;;1.70;99.90;196.50;224877.00;;;;7395758;19;20506;-81
2022/03/19 00:19:49;;;;;;;176.73;82.60;;;1.70;99.90;196.50;224877.00;;;;7396778;19;20600;-81
2022/03/19 00:22:16;;;;;;;184.17;86.47;;;1.70;99.90;196.50;224877.00;;;;7394598;19;20171;-80
2022/03/19 00:24:43;;;;;;;177.30;85.27;;;1.70;99.90;196.50;224877.00;;;;7394945;19;20475;-81
2022/03/19 00:27:17;;;;;;;191.53;87.00;;;1.70;99.90;196.50;224877.00;;;;7389191;19;20136;-81
2022/03/19 00:29:51;;;;;;;181.93;86.53;;;1.70;99.90;196.50;224877.00;;;;7393159;19;20148;-81
2022/03/19 00:32:28;;;;;;;179.83;82.90;;;1.60;99.90;196.50;224877.00;;;;7396717;19;20167;-81
2022/03/19 00:34:55;;;;;;;173.77;83.97;;;1.60;99.90;196.50;224877.00;;;;7398389;19;20189;-80
2022/03/19 00:37:23;;;;;;;188.30;86.43;;;1.50;99.90;196.50;224877.00;;;;7396278;19;20148;-80
2022/03/19 00:39:58;;;;;;;177.60;87.57;;;1.40;99.90;196.50;224877.00;;;;7396006;19;20140;-80
2022/03/19 00:42:31;;;;;;;194.80;86.60;;;1.40;99.90;196.50;224877.00;;;;7396255;19;20713;-81
2022/03/19 00:45:05;;;;;;;171.70;84.53;;;1.40;99.90;196.50;224877.00;;;;7398367;19;20145;-81
2022/03/19 00:47:32;;;;;;;182.37;86.27;;;1.50;99.90;196.50;224877.00;;;;7395901;19;20129;-80
2022/03/19 00:49:59;;;;;;;184.10;84.57;;;1.40;99.90;196.50;224877.00;;;;7393340;19;20149;-80
2022/03/19 00:52:34;;;;;;;195.50;88.13;;;1.40;99.90;196.50;224877.00;;;;7396495;19;20148;-81
2022/03/19 00:55:01;;;;;;;199.10;88.57;;;1.30;99.90;196.50;224877.00;;;;7398535;19;20121;-81
2022/03/19 00:57:45;;;;;;;188.47;86.73;;;1.30;99.90;196.50;224877.00;;;;7395221;19;20167;-80
2022/03/19 01:00:25;;;;;;;180.83;83.50;;;1.20;99.90;196.50;224877.00;;;;7395756;19;20165;-81
2022/03/19 01:02:54;;;;;;;180.17;83.83;;;1.10;99.90;196.50;224877.00;;;;7396495;19;20184;-80
2022/03/19 01:05:31;;;;;;;189.03;86.87;;;1.10;99.90;196.50;224877.00;;;;7395298;19;20144;-80
2022/03/19 01:07:58;;;;;;;189.97;84.93;;;1.10;99.90;196.50;224877.00;;;;7395491;19;20148;-80
2022/03/19 01:10:29;;;;;;;194.13;88.53;;;1.10;99.90;196.50;224877.00;;;;7392796;19;20169;-81
2022/03/19 01:13:06;;;;;;;197.03;89.00;;;1.10;99.90;196.50;224877.00;;;;7396793;19;20576;-80
2022/03/19 01:15:34;;;;;;;203.47;88.63;;;1.10;1.00;196.50;224877.00;;;;7395662;19;20165;-81
2022/03/19 01:18:02;;;;;;;213.00;90.90;;;1.00;1.00;196.50;224877.00;;;;7396468;19;20125;-80
2022/03/19 01:20:36;;;;;;;208.50;89.90;;;1.00;1.00;196.50;224877.00;;;;7395471;19;20151;-81
2022/03/19 01:23:06;;;;;;;191.60;88.40;;;0.90;1.00;196.50;224877.00;;;;7396667;19;20129;-81
2022/03/19 01:25:33;;;;;;;207.97;91.10;;;0.90;1.00;196.50;224877.00;;;;7387569;19;20540;-81
2022/03/19 01:28:07;;;;;;;216.47;96.33;;;0.80;1.00;196.50;224877.00;;;;7393356;19;20580;-81
2022/03/19 01:30:42;;;;;;;215.47;90.77;;;0.90;1.00;196.50;224877.00;;;;7388163;19;20173;-81
2022/03/19 01:33:15;;;;;;;206.60;91.17;;;0.90;1.00;196.50;224877.00;;;;7391392;19;20584;-80
2022/03/19 01:35:42;;;;;;;212.57;92.57;;;1.00;1.00;196.50;224877.00;;;;7393211;19;20600;-80
2022/03/19 01:38:10;;;;;;;206.07;95.77;;;1.00;1.00;196.50;224877.00;;;;7390193;19;20140;-81
2022/03/19 01:40:43;;;;;;;205.23;91.27;;;1.00;1.00;196.50;224877.00;;;;7392278;19;20129;-80
2022/03/19 01:43:11;;;;;;;204.27;90.90;;;1.00;1.00;196.50;224877.00;;;;7393000;19;20124;-81
2022/03/19 01:45:38;;;;;;;196.67;90.90;;;0.90;1.00;196.50;224877.00;;;;7392333;19;20502;-81
2022/03/19 01:48:11;;;;;;;193.70;88.87;;;0.90;1.00;196.50;224877.00;;;;7392825;19;20564;-80
2022/03/19 01:50:39;;;;;;;201.13;91.40;;;0.90;1.00;196.50;224877.00;;;;7393285;19;20158;-80
2022/03/19 01:53:06;;;;;;;200.80;88.80;;;0.80;1.00;196.50;224877.00;;;;7392219;19;20133;-81
2022/03/19 01:55:40;;;;;;;205.10;89.33;;;0.80;1.00;196.50;224877.00;;;;7391969;19;20722;-81
2022/03/19 01:58:07;;;;;;;195.47;87.77;;;0.70;1.00;196.50;224877.00;;;;7393372;19;20632;-80
2022/03/19 02:00:35;;;;;;;198.27;91.20;;;0.70;1.00;196.50;224877.00;;;;7397025;19;20142;-84
2022/03/19 02:03:09;;;;;;;204.70;89.67;;;0.70;1.00;196.50;224877.00;;;;7402100;19;20147;-82
2022/03/19 02:05:36;;;;;;;192.30;85.03;;;0.70;1.00;196.50;224877.00;;;;7396992;19;20621;-82
2022/03/19 02:08:04;;;;;;;190.30;87.13;;;0.60;1.00;196.50;224877.00;;;;7400126;19;20188;-83
2022/03/19 02:10:38;;;;;;;212.00;90.53;;;0.50;1.00;196.50;224877.00;;;;7407591;19;20147;-84
2022/03/19 02:13:05;;;;;;;200.00;89.70;;;0.50;1.00;196.50;224877.00;;;;7416155;19;20143;-82
2022/03/19 02:15:32;;;;;;;198.93;91.60;;;0.50;1.00;196.50;224877.00;;;;7413228;19;20144;-83
2022/03/19 02:31:50;;;;;;;194.37;87.43;;;0.70;1.00;196.50;224877.00;;;;7347122;19;20135;-82
2022/03/19 02:34:34;;;;;;;190.00;86.33;;;0.60;1.00;196.50;224877.00;;;;7420816;19;20144;-82
2022/03/19 02:37:05;;;;;;;185.83;89.43;;;0.60;1.00;196.50;224877.00;;;;7420384;19;20136;-82
2022/03/19 02:39:49;;;;;;;191.17;87.37;;;0.60;1.00;196.50;224877.00;;;;7422801;19;20181;-82
2022/03/19 02:42:20;;;;;;;195.83;87.90;;;0.60;1.00;196.50;224877.00;;;;7422981;19;20173;-82
2022/03/19 02:44:56;;;;;;;182.47;84.73;;;0.60;1.00;196.50;224877.00;;;;7422782;19;20171;-82
2022/03/19 02:47:29;;;;;;;170.93;82.47;;;0.50;1.00;196.50;224877.00;;;;7422071;19;20168;-82
2022/03/19 02:50:03;;;;;;;184.70;83.63;;;0.30;1.00;196.50;224877.00;;;;7420271;19;20169;-82
2022/03/19 02:52:30;;;;;;;175.23;81.47;;;0.30;1.00;196.50;224877.00;;;;7422100;19;20154;-82
2022/03/19 02:55:00;;;;;;;184.23;81.47;;;0.20;1.00;196.50;224877.00;;;;7423499;19;20125;-82
2022/03/19 02:57:41;;;;;;;179.57;83.20;;;0.20;1.00;196.50;224877.00;;;;7421666;19;20154;-82
2022/03/19 03:00:12;;;;;;;177.00;81.63;;;0.20;1.00;196.50;224877.00;;;;7421316;19;20140;-81
2022/03/19 03:02:49;;;;;;;181.90;83.07;;;0.20;1.00;196.50;224877.00;;;;7422876;19;20125;-83
2022/03/19 03:05:16;;;;;;;177.50;80.60;;;0.10;1.00;196.50;224877.00;;;;7421656;19;20125;-83
2022/03/19 03:07:48;;;;;;;178.53;83.17;;;0.00;1.00;196.50;224877.00;;;;7421617;19;20145;-82
2022/03/19 03:10:28;;;;;;;187.60;84.37;;;0.10;1.00;196.50;224877.00;;;;7419739;19;20149;-82
2022/03/19 03:13:01;;;;;;;187.27;84.87;;;0.10;1.00;196.50;224877.00;;;;7424005;19;20129;-82
2022/03/19 03:15:35;;;;;;;175.03;83.37;;;0.20;1.00;196.50;224877.00;;;;7423060;19;20148;-82
2022/03/19 03:18:06;;;;;;;182.87;83.67;;;0.20;1.00;196.50;224877.00;;;;7421317;19;20141;-82
2022/03/19 03:20:45;;;;;;;182.83;83.47;;;0.20;1.00;196.50;224877.00;;;;7423365;19;20128;-81
2022/03/19 03:23:23;;;;;;;183.67;81.03;;;0.30;1.00;196.50;224877.00;;;;7422100;19;20154;-81
2022/03/19 04:04:33;;;;;;;153.47;69.50;;;0.00;99.90;196.50;224877.00;;;;7379790;19;20192;-82
2022/03/19 04:07:08;;;;;;;148.20;71.07;;;-0.10;99.90;196.50;224877.00;;;;7426751;19;20133;-81
2022/03/19 04:09:40;;;;;;;146.37;74.13;;;-0.10;99.90;196.50;224877.00;;;;7426277;19;20133;-81
2022/03/19 04:12:15;;;;;;;144.30;70.93;;;-0.20;99.90;196.50;224877.00;;;;7427595;19;20125;-82
2022/03/19 04:14:43;;;;;;;147.90;73.87;;;-0.10;99.90;196.50;224877.00;;;;7427095;19;20140;-82
2022/03/19 04:17:10;;;;;;;150.97;74.47;;;-0.10;99.90;196.50;224877.00;;;;7426541;19;20133;-81
2022/03/19 04:19:45;;;;;;;146.70;71.87;;;-0.20;99.90;196.50;224877.00;;;;7428219;19;20125;-81
2022/03/19 04:22:17;;;;;;;141.33;72.57;;;-0.20;99.90;196.50;224877.00;;;;7427442;19;20183;-82
2022/03/19 04:25:03;;;;;;;149.50;71.43;;;-0.20;99.90;196.50;224877.00;;;;7426412;19;20141;-82
2022/03/19 04:27:33;;;;;;;145.63;73.33;;;-0.20;99.90;196.50;224877.00;;;;7429401;19;20129;-81
2022/03/19 04:30:12;;;;;;;153.17;73.30;;;-0.20;99.90;196.50;224877.00;;;;7429635;19;20124;-81
2022/03/19 04:32:49;;;;;;;156.07;73.03;;;-0.20;99.90;196.50;224877.00;;;;7429173;19;20144;-82
2022/03/19 04:38:21;;;;;;;152.60;72.37;;;-0.20;1.00;196.50;224877.00;;;;7428044;19;20139;-82
2022/03/19 04:40:59;;;;;;;151.20;71.40;;;-0.10;1.00;196.50;224877.00;;;;7427642;19;20125;-80
2022/03/19 04:43:32;;;;;;;143.40;71.97;;;-0.10;1.00;196.50;224877.00;;;;7428709;19;20935;-79
2022/03/19 04:52:27;;;;;;;136.90;68.60;;;-0.20;99.90;196.50;224877.00;;;;7350999;19;20155;-85
2022/03/19 04:55:43;;;;;;;146.03;66.87;;;-0.30;99.90;196.50;224877.00;;;;7392717;19;20227;-82
2022/03/19 04:58:20;;;;;;;137.47;68.47;;;-0.30;99.90;196.50;224877.00;;;;7427653;19;20138;-82
2022/03/19 05:01:04;;;;;;;141.50;70.50;;;-0.20;99.90;196.50;224877.00;;;;7426558;19;20179;-84
2022/03/19 05:03:32;;;;;;;128.93;67.67;;;-0.20;99.90;196.50;224877.00;;;;7425866;19;20144;-82
2022/03/19 05:06:07;;;;;;;140.03;68.80;;;-0.20;99.90;196.50;224877.00;;;;7427124;19;20144;-82
2022/03/19 05:08:37;;;;;;;130.30;69.57;;;-0.30;99.90;196.50;224877.00;;;;7429345;19;20121;-81
2022/03/19 05:14:52;;;;;;;128.73;66.00;;;-0.20;99.90;196.50;224877.00;;;;7420148;19;20148;-81
2022/03/19 05:17:24;;;;;;;126.60;64.77;;;-0.20;99.90;196.50;224877.00;;;;7424373;19;20161;-80
2022/03/19 05:19:58;;;;;;;130.40;63.53;;;-0.30;99.90;196.50;224877.00;;;;7425012;19;20129;-81
2022/03/19 05:22:29;;;;;;;120.13;64.17;;;-0.40;99.90;196.50;224877.00;;;;7423962;19;20141;-82
2022/03/19 05:24:57;;;;;;;125.03;65.57;;;-0.40;99.90;196.50;224877.00;;;;7421004;19;20154;-80
2022/03/19 05:27:32;;;;;;;116.97;63.23;;;-0.40;99.90;196.50;224877.00;;;;7424740;19;20137;-81
2022/03/19 05:30:10;;;;;;;123.30;63.50;;;-0.50;99.90;196.50;224877.00;;;;7422984;19;20136;-81
2022/03/19 05:32:46;;;;;;;126.97;64.37;;;-0.50;99.90;196.50;224877.00;;;;7422602;19;20144;-81
2022/03/19 05:35:20;;;;;;;124.20;63.77;;;-0.50;99.90;196.50;224877.00;;;;7423166;19;20143;-80
2022/03/19 05:37:55;;;;;;;123.00;61.73;;;-0.40;99.90;196.50;224877.00;;;;7424411;19;20129;-81
2022/03/19 05:40:29;;;;;;;123.67;62.73;;;-0.40;99.90;196.50;224877.00;;;;7424339;19;20192;-81
2022/03/19 05:43:04;;;;;;;119.50;62.67;;;-0.40;99.90;196.50;224877.00;;;;7423771;19;20200;-81
2022/03/19 05:45:32;;;;;;;116.90;62.23;;;-0.40;99.90;196.50;224877.00;;;;7424281;19;20133;-81
2022/03/19 05:48:01;;;;;;;116.03;62.57;;;-0.40;99.90;196.50;224877.00;;;;7424197;19;20145;-81
2022/03/19 05:50:37;;;;;;;118.87;59.87;;;-0.30;99.90;196.50;224877.00;;;;7421516;19;20133;-81
2022/03/19 05:53:05;;;;;;;110.93;60.10;;;-0.30;99.90;196.50;224877.00;;;;7423694;19;20125;-80
2022/03/19 05:55:37;;;;;;;114.60;61.10;;;-0.20;99.90;196.50;224877.00;;;;7424139;19;20125;-81
2022/03/19 05:58:16;;;;;;;126.03;62.07;;;-0.20;99.90;196.50;224877.00;;;;7415631;19;20136;-82
2022/03/19 06:00:49;;;;;;;106.33;58.97;;;0.00;99.90;196.50;224877.00;;;;7417623;19;20129;-82
2022/03/19 06:03:26;;;;;;;99.57;55.73;;;0.00;99.90;196.50;224877.00;;;;7407126;19;20129;-81
2022/03/19 06:05:56;;;;;;;105.53;57.90;;;0.00;99.90;196.50;224877.00;;;;7409999;19;20136;-83
2022/03/19 06:08:32;;;;;;;106.97;58.07;;;0.10;99.90;196.50;224877.00;;;;7409812;19;20608;-83
2022/03/19 06:11:03;;;;;;;102.40;56.03;;;0.20;99.90;196.50;224877.00;;;;7411550;19;20135;-83
2022/03/19 06:13:50;;;;;;;96.93;55.43;;;0.20;59.20;196.50;224877.00;;;;7415819;19;20165;-82
2022/03/19 06:16:27;;;;;;;96.87;52.73;;;0.30;7.00;196.50;224877.00;;;;7413642;19;20147;-82
2022/03/19 06:19:02;;;;;;;85.63;54.17;;;0.30;1.00;196.50;224877.00;;;;7408742;19;20172;-80
2022/03/19 06:21:30;;;;;;;89.07;52.43;;;0.40;1.00;196.50;224877.00;;;;7422423;19;20125;-81
2022/03/19 06:23:57;;;;;;;86.37;52.47;;;0.50;1.00;196.50;224877.00;;;;7421508;19;20137;-81
2022/03/19 06:26:47;;;;;;;81.97;51.27;;;0.60;1.00;196.50;224877.00;;;;7406590;19;20208;-81
2022/03/19 06:29:22;;;;;;;84.47;51.40;;;0.60;1.00;196.50;224877.00;;;;7415737;19;20137;-82
2022/03/19 06:31:58;;;;;;;74.27;49.00;;;0.80;99.90;196.50;224877.00;;;;7414065;19;20137;-82
2022/03/19 06:34:27;;;;;;;81.00;49.87;;;0.80;99.90;196.50;224877.00;;;;7410209;19;20141;-81
2022/03/19 06:39:54;;;;;;;72.10;46.83;;;0.90;99.90;196.50;224877.00;;;;7409400;19;20141;-81
2022/03/19 06:42:22;;;;;;;74.57;46.77;;;0.90;99.90;196.50;224877.00;;;;7393237;19;20146;-81
2022/03/19 06:44:56;;;;;;;72.00;46.83;;;1.00;1.00;196.50;224877.00;;;;7403422;19;20201;-81
2022/03/19 06:47:23;;;;;;;72.27;45.37;;;1.10;1.00;196.50;224877.00;;;;7409259;19;20141;-81
2022/03/19 06:49:51;;;;;;;75.00;47.13;;;1.20;1.00;196.50;224877.00;;;;7402452;19;20210;-81
2022/03/19 06:52:28;;;;;;;72.10;44.73;;;1.30;1.00;196.50;224877.00;;;;7403899;19;20125;-80
2022/03/19 06:54:56;;;;;;;68.43;44.43;;;1.40;1.00;196.50;224877.00;;;;7417155;19;20144;-81
2022/03/19 06:57:23;;;;;;;69.17;43.53;;;1.40;99.90;196.50;224877.00;;;;7403638;19;20129;-81
2022/03/19 06:59:58;;;;;;;63.93;43.50;;;1.60;99.90;196.50;224877.00;;;;7401102;19;20143;-80
2022/03/19 07:02:26;;;;;;;63.73;43.23;;;1.70;99.90;196.50;224877.00;;;;7396402;19;20137;-81
2022/03/19 07:04:53;;;;;;;62.17;42.10;;;1.80;38.40;196.50;224877.00;;;;7403548;19;20666;-80
2022/03/19 07:07:26;;;;;;;62.00;41.97;;;1.80;8.80;196.50;224877.00;;;;7400504;19;20145;-79
2022/03/19 07:09:54;;;;;;;65.57;43.53;;;1.90;1.00;196.50;224877.00;;;;7405459;19;20152;-81
2022/03/19 07:12:21;;;;;;;62.63;42.80;;;2.10;1.00;196.50;224877.00;;;;7405987;19;20534;-81
2022/03/19 07:14:54;;;;;;;62.33;41.67;;;2.30;1.00;196.50;224877.00;;;;7410602;19;20132;-81
2022/03/19 07:17:21;;;;;;;59.43;39.63;;;2.50;1.00;196.50;224877.00;;;;7413500;19;20121;-81
2022/03/19 07:19:49;;;;;;;58.47;39.57;;;2.60;99.90;196.50;224877.00;;;;7418919;19;20210;-81
2022/03/19 07:22:23;;;;;;;53.73;38.83;;;2.70;99.90;196.50;224877.00;;;;7421860;19;20141;-81
2022/03/19 07:24:50;;;;;;;53.20;38.67;;;2.90;1.00;196.50;224877.00;;;;7422926;19;20148;-82
2022/03/19 07:27:17;;;;;;;59.83;40.93;;;2.90;1.00;196.50;224877.00;;;;7421202;19;20176;-81
2022/03/19 07:29:52;;;;;;;57.03;39.97;;;2.90;1.00;196.50;224877.00;;;;7417062;19;20468;-84
2022/03/19 07:32:19;;;;;;;57.60;40.67;;;3.20;99.90;196.50;224877.00;;;;7406408;19;20144;-82
2022/03/19 07:34:47;;;;;;;55.27;40.33;;;3.30;1.00;196.50;224877.00;;;;7416976;19;20137;-82
2022/03/19 07:37:21;;;;;;;54.67;36.97;;;3.40;1.00;196.50;224877.00;;;;7408548;19;20121;-82
2022/03/19 07:39:48;;;;;;;51.33;38.80;;;3.50;99.90;196.50;224877.00;;;;7412467;19;20133;-82
2022/03/19 07:42:16;;;;;;;53.00;37.93;;;3.60;1.00;196.50;224877.00;;;;7415197;19;20778;-83
2022/03/19 08:00:34;;;;;;;51.37;36.83;;;3.90;59.80;196.50;224877.00;;;;7409073;19;20583;-82
2022/03/19 08:03:03;;;;;;;49.63;34.70;;;4.10;99.90;196.50;224877.00;;;;7406975;19;20140;-82
2022/03/19 08:05:43;;;;;;;51.37;35.40;;;4.20;1.00;196.50;224877.00;;;;7405770;19;20143;-80
2022/03/19 08:08:16;;;;;;;48.67;35.63;;;4.20;1.00;196.50;224877.00;;;;7404984;19;20525;-80
2022/03/19 08:10:52;;;;;;;48.23;34.90;;;4.10;40.40;196.50;224877.00;;;;7404419;19;20228;-82
2022/03/19 08:13:29;;;;;;;52.27;35.10;;;4.20;1.00;196.50;224877.00;;;;7408518;19;20184;-81
2022/03/19 08:16:11;;;;;;;48.87;34.20;;;4.20;1.00;196.50;224877.00;;;;7420901;19;20129;-81
2022/03/19 08:21:24;;;;;;;46.87;34.77;;;4.20;1.00;196.50;224877.00;;;;7395028;19;20530;-82
2022/03/19 08:23:58;;;;;;;41.67;31.30;;;4.40;1.00;196.50;224877.00;;;;7402266;19;20125;-79
2022/03/19 08:26:26;;;;;;;47.43;32.67;;;4.80;1.00;196.50;224877.00;;;;7396173;19;20692;-79
2022/03/19 08:28:53;;;;;;;44.60;31.53;;;5.00;99.90;196.50;224877.00;;;;7400264;19;20208;-80
2022/03/19 08:31:28;;;;;;;39.37;30.00;;;5.10;99.90;196.50;224877.00;;;;7399343;19;20490;-80
2022/03/19 08:34:03;;;;;;;43.93;32.50;;;5.10;99.90;196.50;224877.00;;;;7401045;19;20209;-82
2022/03/19 08:36:43;;;;;;;39.47;29.70;;;5.00;99.90;196.50;224877.00;;;;7401571;19;20124;-84
2022/03/19 08:42:04;;;;;;;41.77;31.73;;;5.70;1.00;196.50;224877.00;;;;7401259;19;20588;-79
2022/03/19 08:44:43;;;;;;;42.13;29.70;;;;;196.50;224877.00;;;;7405314;19;20154;-81
2022/03/19 08:47:17;;;;;;;42.23;30.33;;;5.90;1.00;196.50;224877.00;;;;7408131;19;20133;-83
2022/03/19 08:49:45;;;;;;;40.17;30.07;;;5.90;18.90;196.50;224877.00;;;;7406744;19;20125;-83
2022/03/19 08:52:17;;;;;;;40.73;31.33;;;6.10;1.00;196.50;224877.00;;;;7409852;19;20580;-84
2022/03/19 08:54:52;;;;;;;40.60;29.30;;;6.40;1.00;196.50;224877.00;;;;7405448;19;20588;-83
2022/03/19 08:57:20;;;;;;;36.87;28.17;;;6.50;1.00;196.50;224877.00;;;;7405200;19;20472;-82
2022/03/19 08:59:55;;;;;;;41.27;28.73;;;6.40;1.00;196.50;224877.00;;;;7402643;19;20132;-81
2022/03/19 09:02:45;;;;;;;36.73;28.20;;;6.40;1.00;196.50;224877.00;;;;7401834;19;20154;-80
2022/03/19 09:05:13;;;;;;;36.23;27.70;;;6.90;1.00;196.50;224877.00;;;;7399921;19;20135;-80
2022/03/19 09:07:47;;;;;;;36.60;26.20;;;7.10;1.00;196.50;224877.00;;;;7399095;19;20596;-80
2022/03/19 09:10:15;;;;;;;37.30;26.90;;;7.20;1.00;196.50;224877.00;;;;7399040;19;20145;-82
2022/03/19 09:12:42;;;;;;;34.37;26.83;;;7.20;1.00;196.50;224877.00;;;;7399079;19;20180;-82
2022/03/19 09:15:17;;;;;;;34.20;25.83;;;7.40;1.00;196.50;224877.00;;;;7399382;19;20131;-77
2022/03/19 09:17:44;;;;;;;34.37;26.23;;;7.30;1.00;196.50;224877.00;;;;7398510;19;20724;-77
2022/03/19 09:20:12;;;;;;;31.63;25.88;;;7.50;1.00;196.50;224877.00;;;;7396981;19;20179;-78
2022/03/19 09:22:46;;;;;;;34.03;24.40;;;7.70;1.00;196.50;224877.00;;;;7399322;19;20154;-81
2022/03/19 09:25:14;;;;;;;33.35;25.95;;;8.40;1.00;196.50;224877.00;;;;7398547;19;20176;-82
2022/03/19 09:27:42;;;;;;;36.65;26.52;;;8.90;1.00;196.50;224877.00;;;;7399049;19;20138;-80
2022/03/19 09:30:16;;;;;;;30.27;24.60;;;8.90;99.90;196.50;224877.00;;;;7398450;19;20133;-80
2022/03/19 09:32:44;;;;;;;29.55;24.42;;;9.00;99.90;196.50;224877.00;;;;7398062;19;20137;-77
2022/03/19 09:35:27;;;;;;;31.48;24.27;;;9.10;99.90;196.50;224877.00;;;;7398792;19;20200;-79
2022/03/19 09:38:01;;;;;;;30.80;23.70;;;9.20;1.00;196.50;224877.00;;;;7398397;19;20132;-78
2022/03/19 09:40:29;;;;;;;31.65;24.27;;;9.10;99.90;196.50;224877.00;;;;7397989;19;20268;-79
2022/03/19 09:42:57;;;;;;;28.80;23.95;;;8.80;99.90;196.50;224877.00;;;;7398074;19;20144;-80
2022/03/19 09:45:33;;;;;;;32.03;26.02;;;8.70;99.90;196.50;224877.00;;;;7398288;19;20133;-80
2022/03/19 09:48:02;;;;;;;34.35;24.45;;;9.00;99.90;196.50;224877.00;;;;7398463;19;20474;-81
2022/03/19 09:50:30;;;;;;;30.83;23.88;;;8.70;99.90;196.50;224877.00;;;;7397208;19;20583;-82
2022/03/19 09:53:06;;;;;;;31.88;23.23;;;8.80;99.90;196.50;224877.00;;;;7397852;19;20161;-81
2022/03/19 09:55:34;;;;;;;31.42;24.35;;;9.00;99.90;196.50;224877.00;;;;7398028;19;20129;-79
2022/03/19 09:58:02;;;;;;;28.77;23.98;;;9.30;99.90;196.50;224877.00;;;;7397548;19;20132;-79
2022/03/19 10:00:36;;;;;;;30.75;24.30;;;9.10;99.90;196.50;224877.00;;;;7397789;19;20128;-78
2022/03/19 10:03:10;;;;;;;36.78;26.80;;;9.10;99.90;196.50;224877.00;;;;7396298;19;20166;-78
2022/03/19 10:08:37;;;;;;;37.22;27.25;;;8.90;99.90;196.50;224877.00;;;;7395610;19;20221;-77
2022/03/19 10:11:15;;;;;;;35.65;26.70;;;9.10;99.90;196.50;224877.00;;;;7392599;19;20140;-79
2022/03/19 10:13:48;;;;;;;42.83;29.73;;;9.60;99.90;196.50;224877.00;;;;7394641;19;20125;-79
2022/03/19 10:16:28;;;;;;;44.75;30.40;;;9.40;99.90;196.50;224877.00;;;;7393374;19;20132;-80
2022/03/19 10:19:07;;;;;;;31.83;24.10;;;9.50;99.90;196.50;224877.00;;;;7393610;19;20145;-81
2022/03/19 10:21:48;;;;;;;36.05;27.30;;;9.80;99.90;196.50;224877.00;;;;7393880;19;20520;-80
2022/03/19 10:24:29;;;;;;;33.80;26.27;;;10.40;99.90;196.50;224877.00;;;;7393109;19;20486;-79
2022/03/19 10:27:04;;;;;;;31.27;23.98;;;10.20;99.90;196.50;224877.00;;;;7393054;19;20181;-80
2022/03/19 10:29:35;;;;;;;33.28;24.73;;;10.30;99.90;196.50;224877.00;;;;7396696;19;20123;-79
2022/03/19 10:32:07;;;;;;;31.67;23.98;;;10.40;99.90;196.50;224877.00;;;;7392668;19;20120;-80
2022/03/19 10:34:43;;;;;;;29.38;24.02;;;10.50;99.90;196.50;224877.00;;;;7396210;19;20133;-81
2022/03/19 10:37:39;;;;;;;31.52;24.83;;;10.70;99.90;196.50;224877.00;;;;7395931;19;20133;-79
2022/03/19 10:40:14;;;;;;;28.50;25.23;;;10.80;99.90;196.50;224877.00;;;;7397589;19;20186;-80
2022/03/19 10:42:42;;;;;;;34.42;26.17;;;10.60;99.90;196.50;224877.00;;;;7397191;19;20524;-81
2022/03/19 10:45:19;;;;;;;29.73;24.17;;;10.80;99.90;196.50;224877.00;;;;7396750;19;20129;-77
2022/03/19 10:47:59;;;;;;;34.40;26.77;;;10.70;99.90;196.50;224877.00;;;;7396927;19;20140;-80
2022/03/19 10:50:39;;;;;;;31.75;25.80;;;10.50;99.90;196.50;224877.00;;;;7397949;19;20133;-80
2022/03/19 10:53:18;;;;;;;33.90;25.17;;;10.90;99.90;196.50;224877.00;;;;7400036;19;20469;-80
2022/03/19 10:55:46;;;;;;;39.88;27.45;;;11.30;99.90;196.50;224877.00;;;;7398572;19;20158;-75
2022/03/19 10:58:13;;;;;;;32.08;26.23;;;10.80;99.90;196.50;224877.00;;;;7398225;19;20464;-78
2022/03/19 11:01:07;;;;;;;31.40;25.60;;;10.80;99.90;196.50;224877.00;;;;7398578;19;20469;-76
2022/03/19 11:03:40;;;;;;;31.58;25.05;;;10.70;99.90;196.50;224877.00;;;;7394786;19;20148;-77
2022/03/19 11:06:20;;;;;;;32.83;26.48;;;11.10;99.90;196.50;224877.00;;;;7398971;19;20729;-78
2022/03/19 11:08:48;;;;;;;33.50;27.50;;;11.10;99.90;196.50;224877.00;;;;7400613;19;20621;-78
2022/03/19 11:11:55;;;;;;;35.78;27.88;;;11.10;99.90;196.50;224877.00;;;;7399138;19;20614;-79
2022/03/19 11:14:28;;;;;;;35.85;29.05;;;11.50;99.90;196.50;224877.00;;;;7399833;19;20124;-77
2022/03/19 11:17:25;;;;;;;31.25;27.55;;;12.20;99.90;196.50;224877.00;;;;7399818;19;20494;-78
2022/03/19 11:20:09;;;;;;;33.30;27.67;;;12.60;99.90;196.50;224877.00;;;;7396596;19;20197;-77
2022/03/19 11:22:58;;;;;;;35.42;26.27;;;12.80;99.90;196.50;224877.00;;;;7398076;19;20162;-77
2022/03/19 11:25:45;;;;;;;33.30;27.20;;;12.70;99.90;196.50;224877.00;;;;7396361;19;20242;-77
2022/03/19 11:28:21;;;;;;;36.53;28.02;;;11.80;99.90;196.50;224877.00;;;;7398121;19;20125;-78
2022/03/19 11:31:09;;;;;;;36.08;28.33;;;11.30;99.90;196.50;224877.00;;;;7398078;19;20147;-81
2022/03/19 11:33:46;;;;;;;33.10;26.80;;;11.30;99.90;196.50;224877.00;;;;7397738;19;20596;-79
2022/03/19 11:36:16;;;;;;;33.65;26.60;;;11.60;99.90;196.50;224877.00;;;;7397356;19;20213;-79
2022/03/19 11:38:54;;;;;;;30.83;25.70;;;12.40;99.90;196.50;224877.00;;;;7398047;19;20136;-78
2022/03/19 11:41:26;;;;;;;34.45;26.88;;;13.00;99.90;196.50;224877.00;;;;7396834;19;20200;-80
2022/03/19 11:44:24;;;;;;;32.05;24.85;;;13.20;99.90;196.50;224877.00;;;;7397945;19;20129;-79
2022/03/19 11:47:01;;;;;;;33.92;26.75;;;13.00;99.90;196.50;224877.00;;;;7401427;19;20148;-78
2022/03/19 11:49:57;;;;;;;33.22;26.95;;;12.90;99.90;196.50;224877.00;;;;7398696;19;20621;-77
2022/03/19 11:52:27;;;;;;;39.80;26.80;;;12.90;99.90;196.50;224877.00;;;;7394993;19;20162;-77
2022/03/19 11:55:04;;;;;;;31.65;26.35;;;13.00;99.90;196.50;224877.00;;;;7399212;19;20137;-77
2022/03/19 11:58:00;;;;;;;30.95;24.90;;;12.20;99.90;196.50;224877.00;;;;7405967;19;20141;-78
2022/03/19 12:00:38;;;;;;;29.58;23.85;;;11.70;99.90;196.50;224877.00;;;;7405111;19;20141;-79
2022/03/19 12:03:24;;;;;;;27.58;19.45;;;11.60;99.90;196.50;224877.00;;;;7404695;19;20133;-76
2022/03/19 12:06:00;;;;;;;24.58;18.38;;;11.70;99.90;196.50;224877.00;;;;7404791;19;20121;-78
2022/03/19 12:08:32;;;;;;;22.27;16.67;;;12.10;99.90;196.50;224877.00;;;;7402600;19;20608;-78
2022/03/19 12:11:17;;;;;;;24.27;17.48;;;12.70;99.90;196.50;224877.00;;;;7402200;19;20447;-78
2022/03/19 12:13:49;;;;;;;23.88;18.02;;;12.90;99.90;196.50;224877.00;;;;7401113;19;20136;-76
2022/03/19 12:16:45;;;;;;;22.63;18.33;;;12.60;99.90;196.50;224877.00;;;;7402706;19;20121;-78
2022/03/19 12:19:13;;;;;;;19.40;15.77;;;11.40;99.90;196.50;224877.00;;;;7403370;19;20615;-78
2022/03/19 12:21:56;;;;;;;18.05;14.02;;;10.80;99.90;196.50;224877.00;;;;7398028;19;20175;-79
2022/03/19 12:24:46;;;;;;;18.88;14.35;;;9.90;99.90;196.50;224877.00;;;;7407168;19;20143;-81
2022/03/19 12:27:22;;;;;;;17.90;14.45;;;9.00;99.90;196.50;224877.00;;;;7406514;19;20535;-78
2022/03/19 12:29:51;;;;;;;18.98;15.15;;;9.10;99.90;196.50;224877.00;;;;7401781;19;20487;-78
2022/03/19 12:32:22;;;;;;;18.65;14.02;;;10.10;99.90;196.50;224877.00;;;;7398142;19;20129;-79